Time;durP1;ratioP1;P1;durP2;ratioP2;P2;SDS_P1;SDS_P2;PMS_P1;PMS_P2;Temp;Humidity;BMP_temperature;BMP_pressure;BME280_temperature;BME280_humidity;BME280_pressure;Samples;Min_cycle;Max_cycle;Signal;HPM_P1;HPM_P2
2022/04/25 00:00:35;;;;;;;10.00;6.15;;;10.40;99.90;;;9.81;91.67;99690.63;5040542;28;20072;-76
2022/04/25 00:03:04;;;;;;;9.35;6.15;;;10.30;99.90;;;9.70;92.02;99690.13;5049092;28;20047;-76
2022/04/25 00:05:34;;;;;;;8.55;5.10;;;10.20;99.90;;;9.64;92.29;99695.53;5046817;28;20550;-76
2022/04/25 00:08:05;;;;;;;10.70;6.18;;;10.10;99.90;;;9.60;92.88;99708.66;5049096;28;20441;-76
2022/04/25 00:10:33;;;;;;;10.55;5.43;;;10.10;99.90;;;9.61;93.13;99707.63;5049172;28;20061;-76
2022/04/25 00:13:01;;;;;;;13.18;5.28;;;10.20;99.90;;;9.59;92.85;99713.28;5048637;28;20076;-76
2022/04/25 00:15:28;;;;;;;7.40;5.00;;;10.10;99.90;;;9.57;93.03;99701.72;5049204;28;20071;-76
2022/04/25 00:17:56;;;;;;;7.07;4.78;;;10.20;99.90;;;9.61;92.64;99707.63;5049055;28;20049;-76
2022/04/25 00:20:26;;;;;;;9.93;5.55;;;10.20;99.90;;;9.58;92.79;99718.91;5049174;28;20033;-76
2022/04/25 00:22:53;;;;;;;7.43;5.20;;;10.20;99.90;;;9.54;93.25;99723.03;5041067;28;20041;-76
2022/04/25 00:25:21;;;;;;;10.40;5.85;;;10.10;99.90;;;9.58;93.75;99716.19;5049103;28;20052;-75
2022/04/25 00:27:48;;;;;;;8.23;4.85;;;10.20;99.90;;;9.61;94.36;99718.47;5049171;28;20051;-76
2022/04/25 00:30:15;;;;;;;8.23;4.97;;;10.30;99.90;;;9.63;94.22;99716.41;5049002;28;20059;-76
2022/04/25 00:32:42;;;;;;;9.93;5.75;;;10.30;99.90;;;9.66;94.21;99721.44;5047669;28;20569;-76
2022/04/25 00:35:10;;;;;;;7.00;4.70;;;10.30;99.90;;;9.66;93.85;99716.00;5054085;28;20048;-76
2022/04/25 00:37:39;;;;;;;7.95;5.32;;;10.40;99.90;;;9.67;93.96;99716.84;5046337;28;20090;-76
2022/04/25 00:40:08;;;;;;;7.78;5.22;;;10.40;99.90;;;9.68;93.75;99718.53;5046871;28;20045;-76
2022/04/25 00:42:38;;;;;;;8.35;5.18;;;10.40;99.90;;;9.66;93.94;99720.63;5012079;28;20077;-76
2022/04/25 00:45:08;;;;;;;9.60;5.55;;;10.40;99.90;;;9.65;93.90;99727.91;5040421;28;20110;-76
2022/04/25 00:47:36;;;;;;;8.10;5.50;;;10.40;99.90;;;9.65;94.64;99722.47;5050283;28;20044;-76
2022/04/25 00:50:05;;;;;;;7.82;5.45;;;10.40;99.90;;;9.65;94.67;99727.06;5048676;28;20121;-76
2022/04/25 00:52:32;;;;;;;8.35;5.50;;;10.40;99.90;;;9.62;94.60;99730.22;5048342;28;20068;-76
2022/04/25 00:55:07;;;;;;;11.10;6.20;;;10.40;99.90;;;9.62;95.16;99736.47;5043063;28;20057;-76
2022/04/25 00:57:35;;;;;;;8.45;5.80;;;10.50;99.90;;;9.63;95.42;99738.13;5052462;28;20044;-76
2022/04/25 01:00:07;;;;;;;10.70;6.00;;;10.40;99.90;;;9.57;95.43;99738.94;5052459;28;20071;-76
2022/04/25 01:02:37;;;;;;;9.95;5.68;;;10.40;99.90;;;9.57;95.75;99733.50;5050576;28;20132;-76
2022/04/25 01:05:14;;;;;;;11.20;5.97;;;10.40;99.90;;;9.55;95.85;99738.28;5052201;28;20110;-76
2022/04/25 01:07:42;;;;;;;9.10;6.18;;;10.30;99.90;;;9.56;95.63;99738.09;5052106;28;20045;-76
2022/04/25 01:10:12;;;;;;;9.05;6.25;;;10.40;99.90;;;9.53;96.02;99733.06;5051285;28;20044;-76
2022/04/25 01:12:39;;;;;;;9.25;6.22;;;10.30;99.90;;;9.54;96.22;99739.34;5050767;28;20045;-76
2022/04/25 01:15:10;;;;;;;10.40;6.75;;;10.10;99.90;;;9.54;96.03;99734.75;5052137;28;20045;-76
2022/04/25 01:17:38;;;;;;;9.23;6.20;;;10.30;99.90;;;9.54;96.22;99739.34;5051923;28;20037;-76
2022/04/25 01:20:07;;;;;;;10.45;6.72;;;10.30;99.90;;;9.50;96.30;99740.75;5052137;28;20071;-76
2022/04/25 01:22:42;;;;;;;10.25;6.35;;;10.30;99.90;;;9.49;97.03;99734.47;5051779;28;20128;-76
2022/04/25 01:27:57;;;;;;;11.68;6.15;;;10.30;99.90;;;9.52;96.94;99731.38;5052760;28;20708;-76
2022/04/25 01:30:24;;;;;;;9.35;5.93;;;10.30;99.90;;;9.51;96.64;99726.16;5055224;28;20043;-76
2022/04/25 01:32:52;;;;;;;9.45;5.93;;;10.30;99.90;;;9.51;96.79;99723.44;5050378;28;20048;-76
2022/04/25 01:35:30;;;;;;;10.00;6.35;;;10.30;99.90;;;9.52;97.13;99722.38;5049722;28;20049;-76
2022/04/25 01:38:00;;;;;;;8.55;6.05;;;10.30;99.90;;;9.51;97.00;99718.84;5051661;28;20392;-76
2022/04/25 01:40:28;;;;;;;12.13;5.93;;;10.30;99.90;;;9.49;97.06;99715.47;5051602;28;20044;-76
2022/04/25 01:42:58;;;;;;;9.10;5.82;;;10.30;99.90;;;9.47;96.96;99712.13;5054703;28;20170;-76
2022/04/25 01:45:25;;;;;;;10.38;6.05;;;10.30;99.90;;;9.49;96.78;99709.22;5038338;28;20131;-75
2022/04/25 01:47:53;;;;;;;8.98;6.10;;;10.30;99.90;;;9.50;97.34;99708.16;5051351;28;20040;-76
2022/04/25 01:50:20;;;;;;;9.88;6.05;;;10.30;99.90;;;9.47;97.36;99711.28;5051363;28;20049;-76
2022/04/25 01:52:48;;;;;;;8.27;5.85;;;10.30;99.90;;;9.47;97.41;99705.84;5049374;28;20631;-76
2022/04/25 01:55:15;;;;;;;8.80;6.18;;;10.30;99.90;;;9.47;97.31;99705.84;5051217;28;20044;-76
2022/04/25 01:57:44;;;;;;;9.07;5.75;;;10.30;99.90;;;9.46;97.25;99705.03;5050343;28;20041;-76
2022/04/25 02:00:12;;;;;;;8.82;5.93;;;10.30;99.90;;;9.48;97.68;99699.38;5051042;28;20040;-76
2022/04/25 02:02:45;;;;;;;9.45;6.53;;;10.30;99.90;;;9.45;97.90;99702.50;5031093;28;20483;-76
2022/04/25 02:05:12;;;;;;;9.88;6.20;;;10.30;99.90;;;9.44;98.07;99706.22;5041688;28;20041;-76
2022/04/25 02:07:39;;;;;;;8.30;5.82;;;10.30;99.90;;;9.43;98.13;99704.56;5051494;28;20045;-76
2022/04/25 02:10:07;;;;;;;10.90;6.90;;;10.30;99.90;;;9.43;98.37;99712.72;5050309;28;20661;-76
2022/04/25 02:12:38;;;;;;;8.05;5.85;;;10.20;99.90;;;9.42;98.32;99709.16;5050992;28;20554;-76
2022/04/25 02:15:12;;;;;;;9.02;6.55;;;10.20;99.90;;;9.42;98.69;99709.16;5049582;28;20069;-76
2022/04/25 02:17:39;;;;;;;13.52;6.90;;;10.20;99.90;;;9.41;98.79;99717.50;5051143;28;20047;-76
2022/04/25 02:20:08;;;;;;;10.10;6.45;;;10.20;99.90;;;9.39;99.00;99721.25;5051120;28;20061;-76
2022/04/25 02:22:36;;;;;;;10.40;7.00;;;10.10;99.90;;;9.37;99.20;99728.75;5050949;28;20400;-76
2022/04/25 02:25:08;;;;;;;8.45;6.38;;;10.10;99.90;;;9.36;99.71;99723.50;5050066;28;20061;-76
2022/04/25 02:27:36;;;;;;;8.90;6.30;;;10.10;99.90;;;9.35;99.23;99725.41;5055000;28;20186;-77
2022/04/25 02:30:05;;;;;;;11.25;7.00;;;10.10;99.90;;;9.34;98.79;99729.13;5053946;28;20056;-76
2022/04/25 02:32:34;;;;;;;9.70;6.65;;;10.10;99.90;;;9.36;99.01;99731.66;5048560;28;20056;-77
2022/04/25 02:35:01;;;;;;;9.88;6.78;;;10.10;99.90;;;9.35;99.01;99738.97;5051683;28;20391;-77
2022/04/25 02:37:28;;;;;;;10.27;6.93;;;10.10;99.90;;;9.35;99.60;99728.13;5049441;28;20041;-76
2022/04/25 02:39:56;;;;;;;11.70;8.07;;;10.10;99.90;;;9.36;99.13;99735.22;5043671;28;20095;-77
2022/04/25 02:42:26;;;;;;;10.02;7.35;;;10.10;99.90;;;9.36;99.12;99727.06;5049793;28;20045;-76
2022/04/25 02:44:53;;;;;;;9.35;7.00;;;10.10;99.90;;;9.36;99.31;99715.38;5050398;28;20090;-77
2022/04/25 02:47:23;;;;;;;12.23;7.20;;;10.20;99.90;;;9.36;99.38;99715.38;5050012;28;20098;-76
2022/04/25 02:49:53;;;;;;;10.23;7.18;;;10.20;99.90;;;9.37;99.50;99707.03;5043532;28;20588;-76
2022/04/25 02:52:21;;;;;;;11.13;7.75;;;10.20;99.90;;;9.38;99.70;99714.13;5050132;28;20063;-76
2022/04/25 02:54:53;;;;;;;10.70;7.18;;;10.20;99.90;;;9.39;100.00;99701.41;5046831;28;20037;-76
2022/04/25 02:57:23;;;;;;;11.00;7.85;;;10.30;99.90;;;9.40;99.96;99700.34;5049952;28;20116;-76
2022/04/25 02:59:50;;;;;;;10.07;7.30;;;10.20;99.90;;;9.35;99.60;99695.53;5049814;28;20060;-76
2022/04/25 03:02:17;;;;;;;14.00;7.63;;;10.10;99.90;;;9.36;100.00;99697.19;5049919;28;20144;-76
2022/04/25 03:04:46;;;;;;;11.95;7.65;;;10.20;99.90;;;9.36;100.00;99699.06;5034634;28;20037;-76
2022/04/25 03:07:15;;;;;;;11.10;7.03;;;10.10;99.90;;;9.35;100.00;99694.69;5045564;28;20072;-76
2022/04/25 03:09:42;;;;;;;11.40;7.40;;;10.10;99.90;;;9.34;99.92;99693.84;5049892;28;20183;-76
2022/04/25 03:12:10;;;;;;;13.35;8.13;;;10.20;99.90;;;9.35;100.00;99697.41;5049569;28;20073;-76
2022/04/25 03:14:39;;;;;;;12.35;8.27;;;10.10;99.90;;;9.32;100.00;99686.94;5050718;28;20049;-76
2022/04/25 03:17:07;;;;;;;11.20;8.02;;;10.10;99.90;;;9.30;99.85;99695.28;5044069;28;20119;-76
2022/04/25 03:19:34;;;;;;;11.60;7.85;;;10.10;99.90;;;9.28;100.00;99700.06;5048549;28;20132;-76
2022/04/25 03:22:02;;;;;;;13.23;7.63;;;10.10;99.90;;;9.27;100.00;99695.69;5049394;28;20047;-76
2022/04/25 03:24:30;;;;;;;12.43;7.88;;;10.20;99.90;;;9.25;100.00;99692.28;5049887;28;20107;-76
2022/04/25 03:26:58;;;;;;;12.45;8.82;;;10.10;99.90;;;9.25;100.00;99689.59;5049594;28;20053;-76
2022/04/25 03:29:25;;;;;;;12.02;8.25;;;10.10;99.90;;;9.25;100.00;99692.28;5049767;28;20040;-76
2022/04/25 03:31:53;;;;;;;11.00;8.23;;;10.10;99.90;;;9.26;100.00;99699.41;5031378;28;20769;-76
2022/04/25 03:34:20;;;;;;;13.90;9.02;;;10.10;99.90;;;9.26;100.00;99698.59;5049648;28;20510;-75
2022/04/25 03:36:51;;;;;;;12.48;8.50;;;10.10;99.90;;;9.26;100.00;99695.88;5052501;28;20041;-75
2022/04/25 03:39:18;;;;;;;11.90;8.38;;;10.10;99.90;;;9.24;100.00;99690.63;5047655;28;20045;-76
2022/04/25 03:41:47;;;;;;;14.00;8.02;;;10.10;99.90;;;9.23;100.00;99704.41;5041306;28;20041;-76
2022/04/25 03:44:15;;;;;;;11.73;8.57;;;10.10;99.90;;;9.23;100.00;99716.09;5055095;28;20041;-75
2022/04/25 03:46:42;;;;;;;12.43;8.70;;;10.10;99.90;;;9.23;100.00;99716.09;5038202;28;20041;-75
2022/04/25 03:49:09;;;;;;;12.90;8.57;;;10.10;99.90;;;9.23;100.00;99701.69;5049601;28;20040;-75
2022/04/25 03:51:37;;;;;;;12.35;8.73;;;10.10;99.90;;;9.22;100.00;99714.44;5049103;28;20537;-75
2022/04/25 03:54:04;;;;;;;12.63;8.65;;;10.10;99.90;;;9.23;100.00;99705.22;5046698;28;20510;-76
2022/04/25 03:59:17;;;;;;;14.45;8.60;;;10.10;99.90;;;9.20;100.00;99719.22;5049389;28;20491;-76
2022/04/25 04:01:44;;;;;;;12.02;8.23;;;10.10;99.90;;;9.20;100.00;99713.78;5049029;28;20374;-76
2022/04/25 04:04:12;;;;;;;11.20;8.38;;;10.10;99.90;;;9.18;100.00;99722.13;5048988;28;20041;-76
2022/04/25 04:06:39;;;;;;;13.05;8.90;;;10.10;99.90;;;9.20;100.00;99727.34;5049146;28;20045;-76
2022/04/25 04:11:48;;;;;;;12.57;8.52;;;10.10;99.90;;;9.20;100.00;99730.06;5052911;28;20049;-76
2022/04/25 04:14:17;;;;;;;11.38;8.02;;;10.10;99.90;;;9.19;100.00;99731.09;5048585;28;20048;-76
2022/04/25 04:16:44;;;;;;;12.95;8.30;;;10.10;99.90;;;9.18;100.00;99730.25;5049534;28;20099;-76
2022/04/25 04:19:11;;;;;;;13.20;8.40;;;10.10;99.90;;;9.18;100.00;99729.44;5049159;28;20072;-76
2022/04/25 04:21:38;;;;;;;11.50;8.68;;;10.00;99.90;;;9.18;100.00;99729.44;5049136;28;20578;-76
2022/04/25 04:24:06;;;;;;;13.45;8.73;;;10.00;99.90;;;9.16;100.00;99737.75;5047754;28;20045;-76
2022/04/25 04:26:33;;;;;;;12.50;9.13;;;10.00;99.90;;;9.18;100.00;99738.41;5048571;28;20152;-76
2022/04/25 04:29:00;;;;;;;14.23;9.02;;;10.00;99.90;;;9.18;100.00;99748.44;5059611;28;20044;-76
2022/04/25 04:31:29;;;;;;;14.48;9.65;;;10.00;99.90;;;9.17;100.00;99749.44;5072736;28;20043;-76
2022/04/25 04:33:56;;;;;;;12.18;9.07;;;10.00;99.90;;;9.18;100.00;99762.84;5072473;28;20066;-76
2022/04/25 04:36:24;;;;;;;13.38;9.18;;;10.10;99.90;;;9.20;100.00;99765.38;5072847;28;20049;-76
2022/04/25 04:38:51;;;;;;;13.23;9.23;;;10.00;99.90;;;9.19;100.00;99761.81;5070941;28;20128;-77
2022/04/25 04:41:19;;;;;;;14.40;9.82;;;10.00;99.90;;;9.22;100.00;99767.91;5055053;28;20052;-76
2022/04/25 04:43:46;;;;;;;16.77;11.00;;;10.10;99.90;;;9.23;100.00;99778.53;5052265;28;20487;-76
2022/04/25 04:46:13;;;;;;;15.75;11.60;;;10.10;99.90;;;9.24;100.00;99780.22;5056478;28;20132;-76
2022/04/25 04:48:42;;;;;;;17.67;11.55;;;10.10;99.90;;;9.24;100.00;99777.50;5052557;28;20041;-76
2022/04/25 04:51:11;;;;;;;15.25;10.93;;;10.10;99.90;;;9.26;100.00;99778.16;5052243;28;20041;-76
2022/04/25 04:53:39;;;;;;;15.05;10.63;;;10.10;99.90;;;9.27;100.00;99785.28;5052233;28;20049;-76
2022/04/25 04:56:06;;;;;;;14.90;11.25;;;10.10;99.90;;;9.27;100.00;99788.00;5054825;28;20041;-76
2022/04/25 04:58:33;;;;;;;15.52;11.23;;;10.10;99.90;;;9.27;100.00;99779.84;5052310;28;20069;-76
2022/04/25 05:01:01;;;;;;;14.18;11.02;;;10.20;99.90;;;9.28;100.00;99792.38;5052327;28;20456;-76
2022/04/25 05:03:28;;;;;;;16.48;11.20;;;10.20;99.90;;;9.28;100.00;99786.94;5066599;23;20490;-85
2022/04/25 05:05:58;;;;;;;16.58;11.68;;;10.20;99.90;;;9.29;100.00;99785.94;5052617;28;20375;-85
2022/04/25 05:08:25;;;;;;;15.30;11.27;;;10.20;99.90;;;9.29;100.00;99794.06;5051561;28;20045;-84
2022/04/25 05:10:54;;;;;;;16.83;11.98;;;10.20;99.90;;;9.30;100.00;99792.19;5052351;28;20119;-82
2022/04/25 05:13:22;;;;;;;15.48;12.10;;;10.20;99.90;;;9.30;100.00;99797.63;5055954;28;20045;-81
2022/04/25 05:15:49;;;;;;;18.25;12.88;;;10.20;99.90;;;9.31;100.00;99800.16;5033055;28;20609;-83
2022/04/25 05:18:17;;;;;;;17.70;12.50;;;10.20;99.90;;;9.32;100.00;99795.53;5052141;28;20045;-82
2022/04/25 05:20:44;;;;;;;17.60;12.93;;;10.30;99.90;;;9.32;100.00;99799.09;5052275;28;20044;-83
2022/04/25 05:23:12;;;;;;;17.80;13.32;;;10.30;99.90;;;9.32;100.00;99796.38;5033930;28;20037;-85
2022/04/25 05:25:40;;;;;;;19.98;13.52;;;10.20;99.90;;;9.32;100.00;99796.38;5052133;28;20049;-87
2022/04/25 05:28:08;;;;;;;19.33;13.35;;;10.20;99.90;;;9.34;100.00;99805.16;5052278;28;20044;-88
2022/04/25 05:30:36;;;;;;;18.75;14.15;;;10.30;99.90;;;9.35;100.00;99806.03;5052118;28;20069;-88
2022/04/25 05:33:03;;;;;;;18.42;14.13;;;10.20;99.90;;;9.36;100.00;99807.69;5049912;28;20037;-86
2022/04/25 05:35:33;;;;;;;18.67;14.10;;;10.30;99.90;;;9.36;100.00;99811.25;5051936;28;20052;-87
2022/04/25 05:38:01;;;;;;;21.58;14.52;;;10.30;99.90;;;9.37;100.00;99810.22;5052091;28;20703;-87
2022/04/25 05:40:30;;;;;;;21.67;15.52;;;10.30;99.90;;;9.40;100.00;99806.25;5034308;28;20033;-85
2022/04/25 05:42:59;;;;;;;23.05;16.40;;;10.30;99.90;;;9.41;100.00;99815.28;5062941;28;20063;-85
2022/04/25 05:45:27;;;;;;;36.03;19.63;;;10.30;99.90;;;9.42;100.00;99822.38;5071849;28;20040;-87
2022/04/25 05:47:57;;;;;;;27.35;16.95;;;10.30;99.90;;;9.44;100.00;99814.88;5071954;28;20052;-86
2022/04/25 05:53:11;;;;;;;30.08;20.50;;;10.40;99.90;;;9.46;100.00;99818.22;5033369;28;20051;-87
2022/04/25 05:55:41;;;;;;;33.55;21.42;;;10.40;99.90;;;9.44;100.00;99820.31;5051750;28;20037;-82
2022/04/25 05:58:09;;;;;;;31.75;22.95;;;10.40;99.90;;;9.46;100.00;99829.09;5050055;28;20068;-82
2022/04/25 06:00:36;;;;;;;33.40;22.40;;;10.40;99.90;;;9.46;100.00;99829.97;5051527;28;20048;-82
2022/04/25 06:03:04;;;;;;;30.58;22.85;;;10.40;99.90;;;9.50;100.00;99830.38;5051345;28;20041;-82
2022/04/25 06:05:31;;;;;;;30.80;22.25;;;10.40;99.90;;;9.50;100.00;99831.25;5049490;28;20037;-81
2022/04/25 06:07:58;;;;;;;34.60;23.35;;;10.50;99.90;;;9.54;100.00;99842.56;5047898;28;20562;-81
2022/04/25 06:10:26;;;;;;;30.70;21.75;;;10.50;99.90;;;9.52;100.00;99839.16;5053659;28;20067;-82
2022/04/25 06:12:56;;;;;;;32.38;22.58;;;10.50;99.90;;;9.52;100.00;99840.03;5049065;28;20536;-82
2022/04/25 06:15:25;;;;;;;32.00;21.60;;;10.50;99.90;;;9.55;100.00;99846.94;5045424;28;20096;-82
2022/04/25 06:17:53;;;;;;;31.23;22.25;;;10.50;99.90;;;9.57;100.00;99842.16;5043146;28;20520;-79
2022/04/25 06:20:21;;;;;;;30.98;21.48;;;10.60;99.90;;;9.58;100.00;99847.41;5044390;28;20063;-81
2022/04/25 06:22:53;;;;;;;32.63;21.48;;;10.60;99.90;;;9.60;100.00;99847.22;5030081;28;20041;-81
2022/04/25 06:25:20;;;;;;;28.50;20.17;;;10.60;99.90;;;9.61;100.00;99850.75;5040466;28;20510;-81
2022/04/25 06:27:48;;;;;;;34.30;21.83;;;10.50;99.90;;;9.61;100.00;99848.88;5048794;28;20561;-81
2022/04/25 06:30:17;;;;;;;28.90;20.45;;;10.50;99.90;;;9.57;100.00;99847.59;5045978;28;20045;-81
2022/04/25 06:32:44;;;;;;;26.48;19.02;;;10.50;99.90;;;9.57;100.00;99845.72;5038347;28;20143;-81
2022/04/25 06:35:12;;;;;;;32.22;20.75;;;10.50;99.90;;;9.56;100.00;99851.34;5041193;28;20037;-81
2022/04/25 06:37:39;;;;;;;24.00;18.58;;;10.40;99.90;;;9.55;100.00;99860.53;5047037;28;20049;-81
2022/04/25 06:40:08;;;;;;;24.67;18.52;;;10.40;99.90;;;9.56;100.00;99862.22;5043049;28;20053;-81
2022/04/25 06:42:36;;;;;;;23.83;16.58;;;10.40;99.90;;;9.53;100.00;99862.59;5029322;28;20144;-81
2022/04/25 06:45:04;;;;;;;22.55;15.30;;;10.40;99.90;;;9.49;100.00;99858.59;5044592;28;20545;-81
2022/04/25 06:47:32;;;;;;;22.67;16.73;;;10.40;99.90;;;9.49;100.00;99870.28;5044422;28;20041;-80
2022/04/25 06:50:00;;;;;;;25.05;17.92;;;10.40;99.90;;;9.48;100.00;99865.91;5050458;28;20214;-80
2022/04/25 06:52:27;;;;;;;27.45;17.75;;;10.40;99.90;;;9.47;100.00;99874.25;5050383;28;20140;-80
2022/04/25 06:54:54;;;;;;;27.27;19.20;;;10.30;99.90;;;9.49;100.00;99872.19;5047974;28;20043;-81
2022/04/25 06:57:21;;;;;;;25.35;18.50;;;10.30;99.90;;;9.53;100.00;99878.91;5058924;28;20040;-81
2022/04/25 06:59:48;;;;;;;26.02;19.05;;;10.40;99.90;;;9.55;100.00;99874.09;5050487;28;20045;-85
2022/04/25 07:02:16;;;;;;;28.17;20.45;;;10.40;99.90;;;9.55;100.00;99876.81;5045914;28;20121;-80
2022/04/25 07:04:46;;;;;;;29.02;21.50;;;10.50;99.90;;;9.57;100.00;99872.88;5040658;28;20514;-80
2022/04/25 07:07:13;;;;;;;33.78;21.55;;;10.50;99.90;;;9.60;100.00;99879.81;5052937;28;20438;-80
2022/04/25 07:09:40;;;;;;;31.10;22.13;;;10.60;99.90;;;9.61;100.00;99878.75;5031814;28;20041;-80
2022/04/25 07:12:09;;;;;;;35.72;22.73;;;10.60;99.90;;;9.62;100.00;99875.03;5058281;28;20037;-80
2022/04/25 07:14:36;;;;;;;28.92;21.30;;;10.60;99.90;;;9.66;100.00;99881.75;5059663;28;20065;-79
2022/04/25 07:17:04;;;;;;;31.52;22.58;;;10.70;99.90;;;9.70;100.00;99883.03;5026040;28;20076;-79
2022/04/25 07:19:32;;;;;;;29.10;21.98;;;10.70;99.90;;;9.70;100.00;99880.31;5048227;28;20415;-80
2022/04/25 07:30:15;;;;;;;29.50;22.95;;;10.80;99.90;;;9.81;100.00;99883.56;5047465;28;20074;-80
2022/04/25 07:32:43;;;;;;;28.63;20.85;;;10.80;99.90;;;9.82;100.00;99882.50;5027989;28;20065;-80
2022/04/25 07:35:10;;;;;;;27.90;20.73;;;10.80;99.90;;;9.84;100.00;99894.84;5029965;28;20045;-80
2022/04/25 07:37:39;;;;;;;27.65;20.55;;;10.90;99.90;;;9.87;100.00;99896.38;5045736;28;20399;-80
2022/04/25 07:40:09;;;;;;;30.48;21.52;;;10.90;99.90;;;9.86;100.00;99897.38;5035690;28;20524;-81
2022/04/25 07:42:38;;;;;;;29.10;21.25;;;10.80;99.90;;;9.87;100.00;99901.81;5035129;28;20041;-81
2022/04/25 07:45:07;;;;;;;27.15;20.17;;;10.80;99.90;;;9.84;100.00;99903.00;5049486;28;20111;-80
2022/04/25 07:47:35;;;;;;;25.08;18.63;;;10.80;99.90;;;9.87;100.00;99907.25;5053435;28;20040;-80
2022/04/25 07:50:02;;;;;;;24.90;17.35;;;10.90;99.90;;;9.88;100.00;99908.91;5049639;28;20045;-79
2022/04/25 07:52:30;;;;;;;23.00;17.42;;;10.90;99.90;;;9.87;100.00;99907.25;5054655;28;20033;-79
2022/04/25 07:54:58;;;;;;;24.33;19.25;;;10.90;99.90;;;9.90;100.00;99915.84;5037277;28;20045;-79
2022/04/25 07:57:26;;;;;;;22.73;16.30;;;10.90;99.90;;;9.88;100.00;99908.91;5055496;28;20126;-79
2022/04/25 07:59:54;;;;;;;19.05;14.45;;;10.90;99.90;;;9.88;100.00;99923.34;5054953;28;20717;-80
2022/04/25 08:02:23;;;;;;;21.20;16.20;;;10.80;99.90;;;9.85;100.00;99914.75;5050933;28;20064;-80
2022/04/25 08:04:50;;;;;;;21.50;15.05;;;10.80;99.90;;;9.84;100.00;99929.34;5055065;28;20045;-78
2022/04/25 08:07:17;;;;;;;23.70;17.42;;;10.90;99.90;;;9.83;100.00;99919.53;5057396;28;20110;-79
2022/04/25 08:09:45;;;;;;;24.05;16.42;;;10.80;99.90;;;9.83;100.00;99928.53;5044184;28;20049;-79
2022/04/25 08:18:04;;;;;;;24.92;19.10;;;10.80;99.90;;;9.84;100.00;99934.78;5057203;28;20060;-77
2022/04/25 08:20:35;;;;;;;26.35;19.42;;;10.70;99.90;;;9.86;100.00;99944.44;5048631;28;20073;-77
2022/04/25 08:23:04;;;;;;;25.65;19.23;;;10.80;99.90;;;9.89;100.00;99941.31;5047318;28;20044;-78
2022/04/25 08:25:32;;;;;;;28.52;20.98;;;10.90;99.90;;;9.92;100.00;99940.13;5054223;28;20458;-78
2022/04/25 08:28:01;;;;;;;28.60;21.25;;;10.90;99.90;;;9.88;100.00;99947.81;5057532;28;20060;-78
2022/04/25 08:30:29;;;;;;;29.48;21.85;;;10.80;99.90;;;9.81;100.00;99955.06;5056746;28;20461;-78
2022/04/25 08:32:57;;;;;;;30.92;23.25;;;10.70;99.90;;;9.84;100.00;99956.53;5055851;28;20040;-78
2022/04/25 08:35:25;;;;;;;30.80;22.83;;;10.80;99.90;;;9.81;100.00;99962.38;5058711;28;20765;-78
2022/04/25 08:37:54;;;;;;;34.45;24.83;;;10.70;99.90;;;9.79;100.00;99974.25;5057376;28;20041;-78
2022/04/25 08:40:21;;;;;;;32.80;24.52;;;10.70;99.90;;;9.81;100.00;99971.34;5051672;28;20044;-78
2022/04/25 08:42:49;;;;;;;36.80;26.00;;;10.70;99.90;;;9.85;100.00;99972.66;5057892;28;20041;-78
2022/04/25 08:45:17;;;;;;;33.03;25.08;;;10.80;99.90;;;9.88;100.00;99980.44;5058944;28;20116;-78
2022/04/25 08:47:53;;;;;;;30.15;23.55;;;10.90;99.90;;;9.90;100.00;99977.50;5045405;28;20056;-78
2022/04/25 08:50:21;;;;;;;31.35;23.83;;;10.90;99.90;;;9.93;100.00;99983.38;5034885;28;20041;-78
2022/04/25 08:52:49;;;;;;;36.65;25.77;;;10.90;99.90;;;9.97;100.00;99983.84;5063456;28;20460;-78
2022/04/25 08:55:17;;;;;;;35.15;25.75;;;11.00;99.90;;;10.00;100.00;99983.47;5053462;28;20513;-78
2022/04/25 08:57:46;;;;;;;35.20;26.35;;;11.00;99.90;;;10.06;100.00;100000.88;5051442;28;20043;-78
2022/04/25 09:00:16;;;;;;;28.95;23.60;;;11.00;99.90;;;9.97;100.00;99989.28;5052608;28;20061;-78
2022/04/25 09:02:47;;;;;;;29.42;23.92;;;10.90;99.90;;;10.00;100.00;99997.06;5050168;28;20039;-78
2022/04/25 09:05:15;;;;;;;28.48;23.38;;;11.00;99.90;;;9.96;100.00;99999.31;5034526;28;20506;-78
2022/04/25 09:07:43;;;;;;;35.20;23.33;;;10.90;99.90;;;10.03;100.00;100003.97;5052268;28;20087;-79
2022/04/25 09:10:14;;;;;;;26.40;21.77;;;11.00;99.90;;;10.04;100.00;100000.25;5052342;28;20510;-78
2022/04/25 09:12:45;;;;;;;23.25;18.90;;;11.00;99.90;;;10.04;100.00;99994.81;5062052;28;20150;-78
2022/04/25 09:15:12;;;;;;;;;;;11.00;99.90;;;10.09;100.00;100006.78;5061208;28;20051;-78
2022/04/25 09:17:40;;;;;;;22.23;16.58;;;11.10;99.90;;;10.12;100.00;100009.09;5052470;28;20015;-78
2022/04/25 09:20:10;;;;;;;21.05;15.20;;;11.20;99.90;;;10.08;100.00;100015.97;5050473;28;20041;-78
2022/04/25 09:22:41;;;;;;;20.40;15.82;;;11.00;99.90;;;10.05;100.00;100008.22;5053897;28;20061;-78
2022/04/25 09:25:11;;;;;;;24.60;18.00;;;11.00;99.90;;;10.11;100.00;100012.00;5036997;28;20506;-79
2022/04/25 09:27:39;;;;;;;23.27;17.67;;;11.20;99.90;;;10.16;100.00;100009.53;5051275;28;20135;-79
2022/04/25 09:30:16;;;;;;;20.58;15.75;;;11.20;99.90;;;10.20;100.00;100015.44;5055765;28;20123;-80
2022/04/25 09:32:45;;;;;;;20.98;15.38;;;11.20;99.90;;;10.22;100.00;100008.75;5051422;28;20025;-80
2022/04/25 09:35:33;;;;;;;20.80;14.95;;;11.20;99.90;;;10.29;100.00;100014.28;5052128;28;20098;-80
2022/04/25 09:38:04;;;;;;;19.60;14.38;;;11.40;99.90;;;10.36;100.00;100004.34;5045750;28;20041;-79
2022/04/25 09:40:34;;;;;;;18.77;14.15;;;11.50;99.90;;;10.45;100.00;100008.59;5050012;28;20412;-79
2022/04/25 09:43:12;;;;;;;17.52;12.82;;;11.60;99.90;;;10.53;100.00;100010.34;5056319;28;20119;-80
2022/04/25 09:45:42;;;;;;;19.90;12.82;;;11.70;99.90;;;10.60;100.00;100003.06;5055376;28;20139;-80
2022/04/25 09:48:11;;;;;;;18.88;12.25;;;11.80;99.90;;;10.73;100.00;100007.75;5050365;28;20129;-80
2022/04/25 09:50:40;;;;;;;15.05;11.40;;;11.90;99.90;;;10.80;99.56;100008.66;5053431;28;20132;-80
2022/04/25 09:53:10;;;;;;;16.02;11.25;;;12.00;99.90;;;10.88;98.71;100013.94;5065058;28;20126;-80
2022/04/25 09:56:09;;;;;;;14.05;10.77;;;12.10;99.90;;;10.94;96.78;100010.41;5052639;28;20041;-80
2022/04/25 09:58:39;;;;;;;14.60;10.65;;;12.10;99.90;;;11.05;97.29;100005.47;5052129;28;20398;-82
2022/04/25 10:01:12;;;;;;;15.38;10.63;;;12.30;99.90;;;11.08;95.40;100007.78;5051345;28;20037;-81
2022/04/25 10:03:45;;;;;;;15.18;11.55;;;12.30;99.90;;;11.18;96.95;100013.72;5051005;28;20041;-81
2022/04/25 10:15:19;;;;;;;;;;;;;;;;;;;;;
2022/04/25 10:18:56;;;;;;;15.40;11.80;;;12.60;99.90;;;11.33;97.65;100017.16;5010073;28;20057;-80
2022/04/25 10:45:31;;;;;;;25.90;18.15;;;12.00;99.90;;;10.99;95.06;100026.16;4851070;29;20061;-81
2022/04/25 10:53:49;;;;;;;23.92;17.13;;;12.00;99.90;;;11.10;97.19;100028.34;4773871;29;20051;-80
2022/04/25 10:57:35;;;;;;;22.55;16.58;;;12.20;99.90;;;11.16;96.56;100037.59;4788363;29;20133;-80
2022/04/25 11:16:23;;;;;;;26.75;17.20;;;12.40;99.90;;;11.32;96.94;100036.41;4883506;29;20041;-80
2022/04/25 11:19:47;;;;;;;23.65;17.88;;;12.40;99.90;;;11.34;97.25;100032.44;4911330;29;20044;-80
2022/04/25 11:31:25;;;;;;;23.50;18.02;;;12.40;99.90;;;11.31;94.80;100057.38;4926012;28;20054;-79
2022/04/25 11:46:18;;;;;;;26.73;18.33;;;12.70;99.90;;;11.52;95.80;100070.06;4883643;29;20059;-80
2022/04/25 11:50:44;;;;;;;23.02;15.57;;;12.60;99.90;;;11.60;94.91;100065.50;4847567;29;20065;-80
2022/04/25 12:17:21;;;;;;;22.38;15.27;;;12.90;99.90;;;11.82;92.23;100079.81;4986718;28;21650;-77
2022/04/25 12:19:58;;;;;;;17.77;13.60;;;12.90;99.90;;;11.86;92.47;100081.09;4989718;28;20530;-77
2022/04/25 12:22:25;;;;;;;20.15;14.50;;;13.00;99.90;;;11.93;93.36;100082.00;4978284;28;20043;-77
2022/04/25 12:25:18;;;;;;;19.08;14.57;;;13.10;99.90;;;11.99;92.20;100086.63;4970531;28;20062;-77
2022/04/25 12:28:07;;;;;;;19.63;14.32;;;13.10;99.90;;;12.04;92.16;100084.13;4967187;28;20068;-77
2022/04/25 12:30:51;;;;;;;21.92;14.27;;;13.20;99.90;;;12.09;91.81;100080.81;4950480;28;20058;-77